createdAt,value
2023-03-16T00:00:16.884Z,61.14
2023-03-16T00:03:18.726Z,61.16
2023-03-16T00:06:19.570Z,61.14
2023-03-16T00:09:20.508Z,61.03
2023-03-16T00:12:21.957Z,61.06
2023-03-16T00:15:22.960Z,60.96
2023-03-16T00:18:26.595Z,61.03
2023-03-16T00:21:29.762Z,60.88
2023-03-16T00:24:31.343Z,60.89
2023-03-16T00:27:32.312Z,60.84
2023-03-16T00:30:33.158Z,60.81
2023-03-16T00:33:34.521Z,60.78
2023-03-16T00:36:37.513Z,60.57
2023-03-16T00:39:38.478Z,60.59
2023-03-16T00:42:54.979Z,60.46
2023-03-16T00:46:05.839Z,60.20
2023-03-16T00:49:06.825Z,60.10
2023-03-16T00:52:09.263Z,60.00
2023-03-16T00:55:10.439Z,59.92
2023-03-16T00:58:14.304Z,59.83
2023-03-16T01:01:18.241Z,59.82
2023-03-16T01:04:19.552Z,59.91
2023-03-16T01:07:21.249Z,59.75
2023-03-16T01:10:22.099Z,59.79
2023-03-16T01:13:23.000Z,59.60
2023-03-16T01:16:23.994Z,59.50
2023-03-16T01:19:24.975Z,59.53
2023-03-16T01:22:26.358Z,59.37
2023-03-16T01:25:28.813Z,59.29
2023-03-16T01:28:31.490Z,59.16
2023-03-16T01:31:32.518Z,59.01
2023-03-16T01:34:34.602Z,58.99
2023-03-16T01:37:35.483Z,58.88
2023-03-16T01:40:53.056Z,58.81
2023-03-16T01:43:57.646Z,58.77
2023-03-16T01:46:59.590Z,58.80
2023-03-16T01:50:00.435Z,58.87
2023-03-16T01:53:04.657Z,58.76
2023-03-16T01:56:08.460Z,58.65
2023-03-16T01:59:13.825Z,58.50
2023-03-16T02:02:18.821Z,58.43
2023-03-16T02:05:24.074Z,58.31
2023-03-16T02:08:26.498Z,58.20
2023-03-16T02:11:27.794Z,58.00
2023-03-16T02:14:41.964Z,57.95
2023-03-16T02:17:44.238Z,57.85
2023-03-16T02:20:57.959Z,57.71
2023-03-16T02:24:01.671Z,57.63
2023-03-16T02:27:06.056Z,57.58
2023-03-16T02:30:19.597Z,57.44
2023-03-16T02:33:32.406Z,57.27
2023-03-16T02:36:34.367Z,57.11
2023-03-16T02:39:35.331Z,56.90
2023-03-16T02:42:36.662Z,56.74
2023-03-16T02:45:53.212Z,56.66
2023-03-16T02:49:02.239Z,56.51
2023-03-16T02:52:07.187Z,56.46
2023-03-16T02:55:08.920Z,56.26
2023-03-16T02:58:11.013Z,56.17
2023-03-16T03:01:11.925Z,56.13
2023-03-16T03:04:13.413Z,56.05
2023-03-16T03:07:14.819Z,55.98
2023-03-16T03:10:31.384Z,56.00
2023-03-16T03:13:32.501Z,55.91
2023-03-16T03:16:33.586Z,55.85
2023-03-16T03:19:35.783Z,55.76
2023-03-16T03:22:37.437Z,55.72
2023-03-16T03:25:38.282Z,55.61
2023-03-16T03:28:39.222Z,55.62
2023-03-16T03:31:40.158Z,55.65
2023-03-16T03:34:41.947Z,55.54
2023-03-16T03:37:43.598Z,55.48
2023-03-16T03:40:44.946Z,55.50
2023-03-16T03:43:46.673Z,55.61
2023-03-16T03:46:50.993Z,55.60
2023-03-16T03:49:52.372Z,55.50
2023-03-16T03:52:53.326Z,55.52
2023-03-16T03:55:54.520Z,55.64
2023-03-16T03:58:55.672Z,55.54
2023-03-16T04:02:09.758Z,55.54
2023-03-16T04:05:15.142Z,55.52
2023-03-16T04:08:16.979Z,55.53
2023-03-16T04:11:18.908Z,55.44
2023-03-16T04:14:20.261Z,55.37
2023-03-16T04:17:21.718Z,55.43
2023-03-16T04:20:23.471Z,55.31
2023-03-16T04:23:25.190Z,55.28
2023-03-16T04:26:26.561Z,55.44
2023-03-16T04:29:28.169Z,55.39
2023-03-16T04:32:32.827Z,55.52
2023-03-16T04:35:33.851Z,55.52
2023-03-16T04:38:34.878Z,55.51
2023-03-16T04:41:36.253Z,55.49
2023-03-16T04:44:43.780Z,55.52
2023-03-16T04:47:45.230Z,55.51
2023-03-16T04:50:50.763Z,55.49
2023-03-16T04:53:51.937Z,55.43
2023-03-16T04:57:00.866Z,55.44
2023-03-16T05:00:20.470Z,55.45
2023-03-16T05:03:34.565Z,55.50
2023-03-16T05:06:37.015Z,55.49
2023-03-16T05:09:38.672Z,55.45
2023-03-16T05:12:39.934Z,55.39
2023-03-16T05:15:41.905Z,55.49
2023-03-16T05:18:59.886Z,55.47
2023-03-16T05:22:02.614Z,55.44
2023-03-16T05:25:04.891Z,55.46
2023-03-16T05:28:06.277Z,55.45
2023-03-16T05:31:15.676Z,55.50
2023-03-16T05:34:21.128Z,55.53
2023-03-16T05:37:23.519Z,55.78
2023-03-16T05:40:24.456Z,55.87
2023-03-16T05:43:33.712Z,55.87
2023-03-16T05:46:34.919Z,55.87
2023-03-16T05:49:36.774Z,55.94
2023-03-16T05:52:40.832Z,56.01
2023-03-16T05:55:52.275Z,56.15
2023-03-16T05:58:54.861Z,56.07
2023-03-16T06:01:56.130Z,56.21
2023-03-16T06:04:58.674Z,56.19
2023-03-16T06:08:00.717Z,56.26
2023-03-16T06:11:02.418Z,56.40
2023-03-16T06:14:03.621Z,56.66
2023-03-16T06:17:04.735Z,56.79
2023-03-16T06:20:10.388Z,56.96
2023-03-16T06:23:12.993Z,57.02
2023-03-16T06:26:14.226Z,57.10
2023-03-16T06:29:16.240Z,57.25
2023-03-16T06:32:17.139Z,57.22
2023-03-16T06:35:18.174Z,57.26
2023-03-16T06:38:26.153Z,57.18
2023-03-16T06:41:32.076Z,57.13
2023-03-16T06:44:33.119Z,57.03
2023-03-16T06:47:38.028Z,56.90
2023-03-16T06:50:39.089Z,56.83
2023-03-16T06:53:40.701Z,56.76
2023-03-16T06:56:42.032Z,56.71
2023-03-16T06:59:43.110Z,56.60
2023-03-16T07:02:44.066Z,56.55
2023-03-16T07:05:47.288Z,56.62
2023-03-16T07:08:48.321Z,56.67
2023-03-16T07:11:52.028Z,56.85
2023-03-16T07:14:54.235Z,57.04
2023-03-16T07:17:56.525Z,57.08
2023-03-16T07:20:58.672Z,57.11
2023-03-16T07:24:00.672Z,57.24
2023-03-16T07:27:03.776Z,57.14
2023-03-16T07:30:06.707Z,57.22
2023-03-16T07:33:09.507Z,57.22
2023-03-16T07:36:11.098Z,57.31
2023-03-16T07:39:17.098Z,57.25
2023-03-16T07:42:19.212Z,57.11
2023-03-16T07:45:37.616Z,57.02
2023-03-16T07:48:42.444Z,57.05
2023-03-16T07:51:43.481Z,57.05
2023-03-16T07:54:44.967Z,57.01
2023-03-16T07:57:49.306Z,56.87
2023-03-16T08:00:57.980Z,56.66
2023-03-16T08:03:59.081Z,56.33
2023-03-16T08:07:01.477Z,56.24
2023-03-16T08:10:11.924Z,55.90
2023-03-16T08:13:21.646Z,55.48
2023-03-16T08:16:23.925Z,55.16
2023-03-16T08:19:25.714Z,54.89
2023-03-16T08:22:27.241Z,54.56
2023-03-16T08:25:28.804Z,54.17
2023-03-16T08:28:47.098Z,53.85
2023-03-16T08:31:48.807Z,53.47
2023-03-16T08:34:59.976Z,53.06
2023-03-16T08:38:01.073Z,52.69
2023-03-16T08:41:02.105Z,52.34
2023-03-16T08:44:03.817Z,52.09
2023-03-16T08:47:04.905Z,51.72
2023-03-16T08:50:07.128Z,51.36
2023-03-16T08:53:08.948Z,50.95
2023-03-16T08:56:12.014Z,50.52
2023-03-16T08:59:38.112Z,50.03
2023-03-16T09:02:41.039Z,49.78
2023-03-16T09:05:41.901Z,49.45
2023-03-16T09:08:44.743Z,49.22
2023-03-16T09:11:46.488Z,48.73
2023-03-16T09:14:48.314Z,48.53
2023-03-16T09:17:49.795Z,47.97
2023-03-16T09:20:51.186Z,47.62
2023-03-16T09:23:52.055Z,46.76
2023-03-16T09:26:55.277Z,46.59
2023-03-16T09:29:56.500Z,46.18
2023-03-16T09:32:57.650Z,45.97
2023-03-16T09:35:59.019Z,45.42
2023-03-16T09:39:02.766Z,45.16
2023-03-16T09:42:27.594Z,45.06
2023-03-16T09:45:32.789Z,44.68
2023-03-16T09:48:37.875Z,44.41
2023-03-16T09:55:21.961Z,43.35
2023-03-16T09:58:25.711Z,43.23
2023-03-16T10:01:37.175Z,43.44
2023-03-16T10:04:49.091Z,43.52
2023-03-16T10:07:59.043Z,42.96
2023-03-16T10:11:18.715Z,42.44
2023-03-16T10:14:32.476Z,42.57
2023-03-16T10:17:56.330Z,42.20
2023-03-16T10:20:57.908Z,42.36
2023-03-16T10:24:01.692Z,42.13
2023-03-16T10:27:04.183Z,42.24
2023-03-16T10:30:19.255Z,42.35
2023-03-16T10:33:26.036Z,42.35
2023-03-16T10:36:32.921Z,42.43
2023-03-16T10:39:42.242Z,42.37
2023-03-16T10:42:43.178Z,42.24
2023-03-16T10:45:45.789Z,42.28
2023-03-16T10:48:54.256Z,42.32
2023-03-16T10:51:58.821Z,42.14
2023-03-16T10:55:06.303Z,41.92
2023-03-16T10:58:08.376Z,41.72
2023-03-16T11:01:11.413Z,41.87
2023-03-16T11:04:14.994Z,41.63
2023-03-16T11:07:18.323Z,41.75
2023-03-16T11:10:36.225Z,41.94
2023-03-16T11:13:44.357Z,41.88
2023-03-16T11:16:50.429Z,41.82
2023-03-16T11:19:59.636Z,41.39
2023-03-16T11:23:00.912Z,41.11
2023-03-16T11:26:10.084Z,41.08
2023-03-16T11:29:19.602Z,40.81
2023-03-16T11:32:25.932Z,40.10
2023-03-16T11:35:38.449Z,39.47
2023-03-16T11:39:19.981Z,39.26
2023-03-16T11:42:30.468Z,38.95
2023-03-16T11:45:39.523Z,39.17
2023-03-16T11:48:56.074Z,39.08
2023-03-16T11:52:00.791Z,38.96
2023-03-16T11:55:24.136Z,38.90
2023-03-16T11:58:56.152Z,39.01
2023-03-16T12:02:19.642Z,38.48
2023-03-16T12:05:48.090Z,38.13
2023-03-16T12:09:03.653Z,38.09
2023-03-16T12:12:23.548Z,37.91
2023-03-16T12:15:39.597Z,37.97
2023-03-16T12:18:45.610Z,38.02
2023-03-16T12:21:49.388Z,37.78
2023-03-16T12:24:50.268Z,37.61
2023-03-16T12:27:55.243Z,37.48
2023-03-16T12:31:27.929Z,37.17
2023-03-16T12:34:49.637Z,37.16
2023-03-16T12:38:09.397Z,37.09
2023-03-16T12:41:16.000Z,36.63
2023-03-16T12:44:25.970Z,36.55
2023-03-16T12:47:49.752Z,36.62
2023-03-16T12:50:53.880Z,36.55
2023-03-16T12:53:55.437Z,36.54
2023-03-16T12:57:03.084Z,36.33
2023-03-16T13:00:10.214Z,35.88
2023-03-16T13:03:20.573Z,36.05
2023-03-16T13:06:23.863Z,35.98
2023-03-16T13:09:27.510Z,36.16
2023-03-16T13:12:32.240Z,36.23
2023-03-16T13:15:33.679Z,36.41
2023-03-16T13:18:44.056Z,36.54
2023-03-16T13:21:45.104Z,36.15
2023-03-16T13:24:52.020Z,35.90
2023-03-16T13:27:55.222Z,35.53
2023-03-16T13:30:56.486Z,35.46
2023-03-16T13:33:59.363Z,35.53
2023-03-16T13:37:01.594Z,35.30
2023-03-16T13:40:04.190Z,35.18
2023-03-16T13:43:06.086Z,35.08
2023-03-16T13:46:18.335Z,35.28
2023-03-16T13:49:19.328Z,35.33
2023-03-16T13:52:34.109Z,34.96
2023-03-16T13:55:37.010Z,34.77
2023-03-16T13:58:39.517Z,34.47
2023-03-16T14:01:44.523Z,34.51
2023-03-16T14:04:46.396Z,34.76
2023-03-16T14:07:50.262Z,34.58
2023-03-16T14:10:53.780Z,34.48
2023-03-16T14:13:56.772Z,34.12
2023-03-16T14:17:11.228Z,34.03
2023-03-16T14:20:21.048Z,33.99
2023-03-16T14:23:24.506Z,33.90
2023-03-16T14:26:25.776Z,33.65
2023-03-16T14:29:30.805Z,33.48
2023-03-16T14:32:32.883Z,33.46
2023-03-16T14:35:42.339Z,33.64
2023-03-16T14:38:53.680Z,33.56
2023-03-16T14:41:54.644Z,33.35
2023-03-16T14:44:57.250Z,33.20
2023-03-16T14:48:18.014Z,33.28
2023-03-16T14:51:18.960Z,33.34
2023-03-16T14:54:21.753Z,33.32
2023-03-16T14:57:22.618Z,33.22
2023-03-16T15:00:24.789Z,33.26
2023-03-16T15:03:32.435Z,33.28
2023-03-16T15:06:34.455Z,33.13
2023-03-16T15:09:38.531Z,33.02
2023-03-16T15:12:40.270Z,33.21
2023-03-16T15:15:45.375Z,33.01
2023-03-16T15:18:47.036Z,33.01
2023-03-16T15:21:47.899Z,33.22
2023-03-16T15:24:48.737Z,33.14
2023-03-16T15:27:50.692Z,33.00
2023-03-16T15:30:57.545Z,32.72
2023-03-16T15:33:58.545Z,32.80
2023-03-16T15:36:59.925Z,32.80
2023-03-16T15:40:01.695Z,32.91
2023-03-16T15:43:04.811Z,32.62
2023-03-16T15:46:05.908Z,32.69
2023-03-16T15:49:07.630Z,32.61
2023-03-16T15:52:22.058Z,32.75
2023-03-16T15:55:28.718Z,32.85
2023-03-16T15:58:30.920Z,32.96
2023-03-16T16:01:38.590Z,33.08
2023-03-16T16:04:40.842Z,32.84
2023-03-16T16:07:41.736Z,32.71
2023-03-16T16:10:43.591Z,32.85
2023-03-16T16:13:45.481Z,32.65
2023-03-16T16:16:49.250Z,32.78
2023-03-16T16:19:54.631Z,32.81
2023-03-16T16:23:02.706Z,32.84
2023-03-16T16:26:09.092Z,32.81
2023-03-16T16:29:15.184Z,32.48
2023-03-16T16:32:26.603Z,32.59
2023-03-16T16:35:30.751Z,32.78
2023-03-16T16:38:31.864Z,32.58
2023-03-16T16:41:34.869Z,32.41
2023-03-16T16:44:37.965Z,32.62
2023-03-16T16:47:39.079Z,32.65
2023-03-16T16:50:39.967Z,32.69
2023-03-16T16:53:40.920Z,33.05
2023-03-16T16:56:42.371Z,33.00
2023-03-16T16:59:46.323Z,33.06
2023-03-16T17:02:50.602Z,33.39
2023-03-16T17:05:52.787Z,33.64
2023-03-16T17:08:56.847Z,33.87
2023-03-16T17:11:59.157Z,34.09
2023-03-16T17:15:00.078Z,34.30
2023-03-16T17:18:12.581Z,34.45
2023-03-16T17:21:16.487Z,34.68
2023-03-16T17:24:17.394Z,34.85
2023-03-16T17:27:23.450Z,35.08
2023-03-16T17:30:30.142Z,35.23
2023-03-16T17:33:31.177Z,35.46
2023-03-16T17:36:32.046Z,35.77
2023-03-16T17:39:33.755Z,35.98
2023-03-16T17:42:34.732Z,36.33
2023-03-16T17:45:35.930Z,36.63
2023-03-16T17:48:36.822Z,36.90
2023-03-16T17:51:40.220Z,37.21
2023-03-16T17:54:41.606Z,37.43
2023-03-16T17:57:42.573Z,37.67
2023-03-16T18:00:46.221Z,37.92
2023-03-16T18:03:47.194Z,38.17
2023-03-16T18:06:48.708Z,38.26
2023-03-16T18:09:50.052Z,38.41
2023-03-16T18:12:57.730Z,38.70
2023-03-16T18:15:59.497Z,38.95
2023-03-16T18:19:05.195Z,39.07
2023-03-16T18:22:15.166Z,39.26
2023-03-16T18:25:33.180Z,39.44
2023-03-16T18:28:34.344Z,39.62
2023-03-16T18:31:35.296Z,39.72
2023-03-16T18:34:36.252Z,39.91
2023-03-16T18:37:37.724Z,40.06
2023-03-16T18:40:38.592Z,40.21
2023-03-16T18:43:39.726Z,40.34
2023-03-16T18:46:41.117Z,40.52
2023-03-16T18:49:46.399Z,40.49
2023-03-16T18:52:47.830Z,40.66
2023-03-16T18:55:49.787Z,40.88
2023-03-16T18:58:51.965Z,41.05
2023-03-16T19:01:53.396Z,41.32
2023-03-16T19:04:55.593Z,41.44
2023-03-16T19:07:56.604Z,41.63
2023-03-16T19:11:00.570Z,41.79
2023-03-16T19:14:01.465Z,41.94
2023-03-16T19:17:02.507Z,42.16
2023-03-16T19:20:03.661Z,42.28
2023-03-16T19:23:13.883Z,42.38
2023-03-16T19:26:14.810Z,42.55
2023-03-16T19:29:16.150Z,42.72
2023-03-16T19:32:18.824Z,42.83
2023-03-16T19:35:20.148Z,42.94
2023-03-16T19:38:22.132Z,43.16
2023-03-16T19:41:30.617Z,43.05
2023-03-16T19:44:31.505Z,43.11
2023-03-16T19:47:33.756Z,43.29
2023-03-16T19:50:34.639Z,43.27
2023-03-16T19:53:35.548Z,43.42
2023-03-16T19:56:36.667Z,43.61
2023-03-16T19:59:37.526Z,43.63
2023-03-16T20:02:40.004Z,43.93
2023-03-16T20:05:40.885Z,44.05
2023-03-16T20:08:42.096Z,44.32
2023-03-16T20:11:43.318Z,44.51
2023-03-16T20:14:44.227Z,44.69
2023-03-16T20:17:45.994Z,45.01
2023-03-16T20:20:46.944Z,45.17
2023-03-16T20:23:48.223Z,45.35
2023-03-16T20:26:50.773Z,45.43
2023-03-16T20:29:52.191Z,45.82
2023-03-16T20:32:53.109Z,45.87
2023-03-16T20:35:54.463Z,45.98
2023-03-16T20:38:55.324Z,46.28
2023-03-16T20:41:56.495Z,46.39
2023-03-16T20:44:58.010Z,46.40
2023-03-16T20:47:58.886Z,46.64
2023-03-16T20:50:59.987Z,46.73
2023-03-16T20:54:01.082Z,46.77
2023-03-16T20:57:02.045Z,46.97
2023-03-16T21:00:14.540Z,47.12
2023-03-16T21:03:21.721Z,47.23
2023-03-16T21:06:29.229Z,47.39
2023-03-16T21:09:32.574Z,47.60
2023-03-16T21:12:35.255Z,47.70
2023-03-16T21:15:36.200Z,47.84
2023-03-16T21:18:37.390Z,47.96
2023-03-16T21:21:38.303Z,48.10
2023-03-16T21:24:39.150Z,48.32
2023-03-16T21:27:40.485Z,48.42
2023-03-16T21:30:46.952Z,48.60
2023-03-16T21:33:48.970Z,48.73
2023-03-16T21:36:50.224Z,48.96
2023-03-16T21:39:51.695Z,49.11
2023-03-16T21:42:52.992Z,49.17
2023-03-16T21:45:54.473Z,49.25
2023-03-16T21:48:55.400Z,49.41
2023-03-16T21:51:56.462Z,49.50
2023-03-16T21:54:58.712Z,49.63
2023-03-16T21:57:59.625Z,49.80
2023-03-16T22:01:00.788Z,49.89
2023-03-16T22:04:09.529Z,50.09
2023-03-16T22:07:11.620Z,50.37
2023-03-16T22:10:21.094Z,50.44
2023-03-16T22:13:23.288Z,50.59
2023-03-16T22:16:27.188Z,50.69
2023-03-16T22:19:28.111Z,50.58
2023-03-16T22:22:30.134Z,50.79
2023-03-16T22:25:31.279Z,50.94
2023-03-16T22:28:32.414Z,51.00
2023-03-16T22:31:34.848Z,51.11
2023-03-16T22:34:44.027Z,51.14
2023-03-16T22:37:45.057Z,51.19
2023-03-16T22:40:46.161Z,51.45
2023-03-16T22:43:47.160Z,51.55
2023-03-16T22:46:48.285Z,51.64
2023-03-16T22:49:49.302Z,51.80
2023-03-16T22:52:52.358Z,51.86
2023-03-16T22:55:55.086Z,51.89
2023-03-16T22:58:58.860Z,52.07
2023-03-16T23:01:59.800Z,52.11
2023-03-16T23:05:00.813Z,52.28
2023-03-16T23:08:04.899Z,52.38
2023-03-16T23:11:12.365Z,52.52
2023-03-16T23:14:20.540Z,52.61
2023-03-16T23:17:21.551Z,52.76
2023-03-16T23:20:31.185Z,52.84
2023-03-16T23:23:32.358Z,52.86
2023-03-16T23:26:33.262Z,52.84
2023-03-16T23:29:34.386Z,52.97
2023-03-16T23:32:35.473Z,52.95
2023-03-16T23:35:36.419Z,53.09
2023-03-16T23:38:37.298Z,53.29
2023-03-16T23:41:40.845Z,53.37
2023-03-16T23:44:42.234Z,53.49
2023-03-16T23:47:43.445Z,53.61
2023-03-16T23:50:47.162Z,53.64
2023-03-16T23:53:48.772Z,53.77
2023-03-16T23:56:50.245Z,53.84
2023-03-16T23:59:51.142Z,53.85
